Overview Statistics Trail Chart Weather Telemetry Raw packets
 

This is the latest recevied weather packets stored in our database for station/object KC9DRE. If no packets are shown the sender has not sent any weather packets the latest 10 day(s).

<< 81 82 83 84 85 86 87 >>
Time Temp. Humidity Pressure Rain* Wind** Luminosity Snow
1777310732 21.11° C 73% 1014.5 hPa 0 mm - 163 W/m² -
1777310429 21.11° C 72% 1014.5 hPa 0 mm - 146 W/m² -
1777310126 20.56° C 73% 1014.5 hPa 0 mm - 160 W/m² -
1777309824 20.56° C 72% 1014.5 hPa 0 mm - 130 W/m² -
1777309522 21.11° C 71% 1014.2 hPa 0 mm - 176 W/m² -
1777309219 21.11° C 72% 1014.4 hPa 0 mm - 172 W/m² -
1777308917 20.56° C 71% 1014 hPa 0 mm - 149 W/m² -
1777308612 20.56° C 70% 1014 hPa 0 mm - 152 W/m² -
1777308308 21.11° C 70% 1013.7 hPa 0 mm - 139 W/m² -
1777308003 21.11° C 70% 1013.7 hPa 0 mm - 127 W/m² -
1777307701 20.56° C 71% 1013.8 hPa 0 mm - 160 W/m² -
1777307397 20.56° C 71% 1013.8 hPa 0 mm - 153 W/m² -
1777307096 20.56° C 70% 1014 hPa 0 mm - 140 W/m² -
1777306793 20.56° C 69% 1014.1 hPa 0 mm - 113 W/m² -
1777306490 21.11° C 68% 1014.3 hPa 0 mm - 115 W/m² -
1777306186 21.11° C 68% 1014 hPa 0 mm - 161 W/m² -
1777305880 21.11° C 68% 1013.6 hPa 0 mm - 210 W/m² -
1777305577 21.67° C 66% 1013.4 hPa 0 mm - 189 W/m² -
1777305273 22.22° C 65% 1013.9 hPa 0 mm - 218 W/m² -
1777304972 22.22° C 65% 1013.9 hPa 0 mm - 285 W/m² -
1777304669 21.67° C 67% 1014.4 hPa 0 mm - 493 W/m² -
1777304366 21.11° C 71% 1014.3 hPa 0 mm - 531 W/m² -
1777304063 20.56° C 69% 1014.1 hPa 0 mm - 367 W/m² -
1777303760 20° C 69% 1014.1 hPa 0 mm - 287 W/m² -
1777303457 20° C 69% 1014 hPa 0 mm - 252 W/m² -

* Rain latest hour (hover to see other rain measurements)
** Current wind speed in m/s (hover to see current wind gust speed)